Time;durP1;ratioP1;P1;durP2;ratioP2;P2;SDS_P1;SDS_P2;PMS_P1;PMS_P2;Temp;Humidity;BMP_temperature;BMP_pressure;BME280_temperature;BME280_humidity;BME280_pressure;Samples;Min_cycle;Max_cycle;Signal;HPM_P1;HPM_P2
2022/09/23 00:01:01;;;;;;;4.93;4.53;;;9.40;99.90;;;;;;5109438;28;20217;-50
2022/09/23 00:03:32;;;;;;;5.80;5.30;;;9.30;99.90;;;;;;5110118;28;20223;-49
2022/09/23 00:06:00;;;;;;;6.03;5.10;;;9.30;99.90;;;;;;5113145;28;20205;-49
2022/09/23 00:08:28;;;;;;;8.03;5.73;;;9.30;99.90;;;;;;5112862;28;20869;-49
2022/09/23 00:10:56;;;;;;;5.43;5.13;;;9.30;99.90;;;;;;5103961;28;20208;-49
2022/09/23 00:13:24;;;;;;;7.50;6.80;;;9.20;99.90;;;;;;5111246;28;20717;-49
2022/09/23 00:15:52;;;;;;;5.30;5.00;;;9.30;99.90;;;;;;5111589;28;20206;-49
2022/09/23 00:18:19;;;;;;;5.37;5.07;;;9.30;99.90;;;;;;5108426;28;20217;-49
2022/09/23 00:20:46;;;;;;;6.67;6.03;;;9.30;99.90;;;;;;5112825;28;20254;-48
2022/09/23 00:23:13;;;;;;;5.50;5.10;;;9.30;99.90;;;;;;5100485;28;20221;-49
2022/09/23 00:25:40;;;;;;;5.80;5.30;;;9.20;99.90;;;;;;5108178;28;20225;-49
2022/09/23 00:28:07;;;;;;;6.83;6.17;;;9.20;99.90;;;;;;5112328;28;20213;-49
2022/09/23 00:30:36;;;;;;;6.20;5.70;;;9.20;99.90;;;;;;5101990;28;20214;-49
2022/09/23 00:33:03;;;;;;;6.03;5.53;;;9.10;99.90;;;;;;5104060;28;20199;-49
2022/09/23 00:35:30;;;;;;;5.97;5.47;;;9.10;99.90;;;;;;5112645;28;20198;-49
2022/09/23 00:37:58;;;;;;;7.13;5.73;;;9.10;99.90;;;;;;5105169;28;20218;-49
2022/09/23 00:40:26;;;;;;;6.07;5.47;;;9.10;99.90;;;;;;5108517;28;20208;-50
2022/09/23 00:42:53;;;;;;;6.30;5.70;;;9.10;99.90;;;;;;5108618;28;20208;-49
2022/09/23 00:45:20;;;;;;;5.70;5.17;;;9.20;99.90;;;;;;5111764;28;20624;-49
2022/09/23 00:47:53;;;;;;;5.63;5.30;;;9.20;99.90;;;;;;5109887;28;20709;-50
2022/09/23 00:50:26;;;;;;;5.37;5.07;;;9.20;99.90;;;;;;5107819;28;20208;-49
2022/09/23 00:52:55;;;;;;;5.63;5.13;;;9.10;99.90;;;;;;5112316;28;20194;-49
2022/09/23 00:55:26;;;;;;;5.93;5.43;;;9.10;99.90;;;;;;5112224;28;20205;-49
2022/09/23 00:57:57;;;;;;;6.27;5.87;;;9.10;99.90;;;;;;5112282;28;20729;-49
2022/09/23 01:00:24;;;;;;;6.87;6.20;;;9.10;99.90;;;;;;5109122;28;20196;-49
2022/09/23 01:02:53;;;;;;;6.30;5.80;;;9.10;99.90;;;;;;5107028;28;20212;-49
2022/09/23 01:05:21;;;;;;;5.87;5.33;;;9.10;99.90;;;;;;5111662;28;20678;-49
2022/09/23 01:07:50;;;;;;;6.80;6.00;;;9.10;99.90;;;;;;5112007;28;20905;-49
2022/09/23 01:10:18;;;;;;;5.07;4.77;;;9.00;99.90;;;;;;5112024;28;20201;-48
2022/09/23 01:13:02;;;;;;;5.50;5.10;;;8.90;99.90;;;;;;5108186;28;20237;-49
2022/09/23 01:15:38;;;;;;;5.60;5.20;;;8.80;99.90;;;;;;5100256;28;20191;-48
2022/09/23 01:18:12;;;;;;;5.70;5.10;;;8.70;99.90;;;;;;5103549;28;20267;-49
2022/09/23 01:21:00;;;;;;;10.77;6.33;;;8.70;99.90;;;;;;5111994;28;20617;-48
2022/09/23 01:23:53;;;;;;;6.07;4.67;;;8.60;99.90;;;;;;5100296;28;20202;-49
2022/09/23 01:26:52;;;;;;;6.03;5.47;;;8.60;99.90;;;;;;5104703;28;20198;-49
2022/09/23 01:29:52;;;;;;;5.30;4.87;;;8.60;99.90;;;;;;5108682;28;20221;-49
2022/09/23 01:32:35;;;;;;;5.97;5.43;;;8.60;99.90;;;;;;5071470;28;20258;-49
2022/09/23 01:35:08;;;;;;;6.33;5.77;;;8.50;99.90;;;;;;5107346;28;20610;-49
2022/09/23 01:37:43;;;;;;;6.83;6.33;;;8.50;99.90;;;;;;5114329;28;20272;-48
2022/09/23 01:40:17;;;;;;;5.17;4.77;;;8.50;99.90;;;;;;5104537;28;20201;-49
2022/09/23 01:42:52;;;;;;;5.00;4.60;;;8.50;99.90;;;;;;5115936;28;20205;-48
2022/09/23 01:45:25;;;;;;;5.77;5.30;;;8.50;99.90;;;;;;5110713;28;20213;-48
2022/09/23 01:47:59;;;;;;;6.13;5.80;;;8.50;99.90;;;;;;5110624;28;20275;-49
2022/09/23 01:53:21;;;;;;;5.40;5.00;;;8.40;99.90;;;;;;5109103;28;20209;-49
2022/09/23 01:55:51;;;;;;;5.57;5.10;;;8.40;99.90;;;;;;5115926;28;20201;-48
2022/09/23 01:58:26;;;;;;;4.80;4.50;;;8.30;99.90;;;;;;5113641;28;20706;-49
2022/09/23 02:00:58;;;;;;;6.97;6.27;;;8.30;99.90;;;;;;5114369;28;20247;-48
2022/09/23 02:03:33;;;;;;;5.87;5.47;;;8.30;99.90;;;;;;5111784;28;20212;-48
2022/09/23 02:06:03;;;;;;;5.67;5.27;;;8.20;99.90;;;;;;5111461;28;20214;-48
2022/09/23 02:08:35;;;;;;;5.63;5.33;;;8.20;99.90;;;;;;5111043;28;20217;-49
2022/09/23 02:11:07;;;;;;;5.97;5.47;;;8.20;99.90;;;;;;5095180;28;20255;-49
2022/09/23 02:13:40;;;;;;;5.73;5.23;;;8.20;99.90;;;;;;5103719;28;20196;-49
2022/09/23 02:16:14;;;;;;;6.20;5.80;;;8.20;99.90;;;;;;5100647;28;20259;-49
2022/09/23 02:18:46;;;;;;;6.50;6.00;;;8.20;99.90;;;;;;5115470;28;20231;-50
2022/09/23 02:21:15;;;;;;;7.43;6.83;;;8.20;99.90;;;;;;5112762;28;20193;-49
2022/09/23 02:23:45;;;;;;;6.87;6.30;;;8.10;99.90;;;;;;5111859;28;20284;-49
2022/09/23 02:26:20;;;;;;;6.60;6.10;;;8.20;99.90;;;;;;5108238;28;20201;-49
2022/09/23 02:28:55;;;;;;;7.27;5.80;;;8.20;99.90;;;;;;5110742;28;20217;-49
2022/09/23 02:31:30;;;;;;;6.03;5.53;;;8.20;99.90;;;;;;5115046;28;20230;-48
2022/09/23 02:34:05;;;;;;;5.73;5.33;;;8.10;99.90;;;;;;5114770;28;20729;-49
2022/09/23 02:36:40;;;;;;;6.13;5.83;;;8.20;99.90;;;;;;5114836;28;20250;-49
2022/09/23 02:39:11;;;;;;;8.27;6.10;;;8.20;99.90;;;;;;5107788;28;20217;-49
2022/09/23 02:41:48;;;;;;;6.77;6.17;;;8.10;99.90;;;;;;5108223;28;20263;-49
2022/09/23 02:44:18;;;;;;;5.77;5.27;;;8.00;99.90;;;;;;5112612;28;20705;-49
2022/09/23 02:46:46;;;;;;;5.90;5.33;;;8.00;99.90;;;;;;5110332;28;20214;-49
2022/09/23 02:49:20;;;;;;;6.60;5.30;;;8.00;99.90;;;;;;5114495;28;20213;-50
2022/09/23 02:51:47;;;;;;;7.20;5.80;;;8.00;99.90;;;;;;5114964;28;20204;-49
2022/09/23 02:54:18;;;;;;;6.97;6.27;;;8.10;99.90;;;;;;5110832;28;20716;-48
2022/09/23 02:56:47;;;;;;;6.60;6.10;;;8.10;99.90;;;;;;5114798;28;20202;-49
2022/09/23 02:59:18;;;;;;;5.90;5.50;;;8.00;99.90;;;;;;5114416;28;20222;-49
2022/09/23 03:01:56;;;;;;;6.67;6.20;;;7.90;99.90;;;;;;5107006;28;20361;-48
2022/09/23 03:04:33;;;;;;;7.20;6.50;;;7.90;99.90;;;;;;5113742;28;20253;-49
2022/09/23 03:07:05;;;;;;;5.80;5.40;;;7.90;99.90;;;;;;5106210;28;20201;-50
2022/09/23 03:09:34;;;;;;;5.87;5.57;;;7.90;99.90;;;;;;5113986;28;20598;-48
2022/09/23 03:12:11;;;;;;;5.87;5.47;;;7.80;99.90;;;;;;5105689;28;20666;-49
2022/09/23 03:14:45;;;;;;;5.60;5.20;;;7.80;99.90;;;;;;5111912;28;20197;-49
2022/09/23 03:17:20;;;;;;;6.90;6.40;;;7.70;99.90;;;;;;5109152;28;20640;-48
2022/09/23 03:19:51;;;;;;;6.63;5.90;;;7.70;99.90;;;;;;5113270;27;20644;-49
2022/09/23 03:22:23;;;;;;;6.90;6.23;;;7.70;99.90;;;;;;5111830;28;20650;-48
2022/09/23 03:24:51;;;;;;;6.40;5.80;;;7.70;99.90;;;;;;5110083;28;20226;-49
2022/09/23 03:27:22;;;;;;;6.83;6.33;;;7.70;99.90;;;;;;5093077;28;20672;-49
2022/09/23 03:29:52;;;;;;;7.07;6.37;;;7.80;99.90;;;;;;5105894;28;20222;-48
2022/09/23 03:32:22;;;;;;;7.17;6.50;;;7.80;99.90;;;;;;5111501;28;20200;-49
2022/09/23 03:34:54;;;;;;;5.97;5.43;;;7.80;99.90;;;;;;5109321;28;20255;-49
2022/09/23 03:37:25;;;;;;;6.13;5.73;;;7.80;99.90;;;;;;5113358;28;20198;-49
2022/09/23 03:39:57;;;;;;;6.90;6.30;;;7.80;99.90;;;;;;5113653;27;20202;-49
2022/09/23 03:42:26;;;;;;;7.63;6.93;;;7.80;99.90;;;;;;5105388;28;20699;-49
2022/09/23 03:44:56;;;;;;;5.53;5.17;;;7.80;99.90;;;;;;5092786;28;20249;-48
2022/09/23 03:47:24;;;;;;;7.93;7.23;;;7.70;99.90;;;;;;5102318;28;20248;-48
2022/09/23 03:49:55;;;;;;;5.80;5.33;;;7.70;99.90;;;;;;5110554;28;20213;-49
2022/09/23 03:52:24;;;;;;;6.43;5.83;;;7.60;99.90;;;;;;5107764;28;20214;-49
2022/09/23 03:54:51;;;;;;;6.93;5.97;;;7.60;99.90;;;;;;5110590;28;20254;-48
2022/09/23 03:57:19;;;;;;;6.57;5.97;;;7.50;99.90;;;;;;5112970;28;20251;-48
2022/09/23 03:59:46;;;;;;;6.23;5.73;;;7.50;99.90;;;;;;5101834;28;20270;-48
2022/09/23 04:02:14;;;;;;;6.63;6.03;;;7.50;99.90;;;;;;5106202;28;20205;-48
2022/09/23 04:04:41;;;;;;;6.27;5.77;;;7.40;99.90;;;;;;5111031;28;20225;-48
2022/09/23 04:07:10;;;;;;;5.90;5.40;;;7.50;99.90;;;;;;5110075;28;20863;-48
2022/09/23 04:09:37;;;;;;;5.90;5.50;;;7.50;99.90;;;;;;5108505;28;20308;-48
2022/09/23 04:12:05;;;;;;;5.73;5.33;;;7.50;99.90;;;;;;5113317;28;20205;-48
2022/09/23 04:14:32;;;;;;;6.13;5.60;;;7.50;99.90;;;;;;5114416;28;20208;-49
2022/09/23 04:17:00;;;;;;;5.53;5.03;;;7.50;99.90;;;;;;5112958;28;20262;-49
2022/09/23 04:19:27;;;;;;;7.40;6.80;;;7.50;99.90;;;;;;5119627;28;20615;-55
2022/09/23 04:21:54;;;;;;;5.90;5.20;;;7.50;99.90;;;;;;5116540;28;20743;-48
2022/09/23 04:24:22;;;;;;;6.50;5.93;;;7.40;99.90;;;;;;5113805;27;20196;-48
2022/09/23 04:26:52;;;;;;;7.03;6.53;;;7.50;99.90;;;;;;5112500;28;20670;-48
2022/09/23 04:29:19;;;;;;;5.03;4.70;;;7.50;99.90;;;;;;5111597;28;20320;-48
2022/09/23 04:31:46;;;;;;;6.27;5.87;;;7.50;99.90;;;;;;5107709;28;20217;-48
2022/09/23 04:34:14;;;;;;;5.83;5.53;;;7.50;99.90;;;;;;5099532;28;20257;-49
2022/09/23 04:36:41;;;;;;;5.57;5.17;;;7.50;99.90;;;;;;5102435;28;20198;-49
2022/09/23 04:39:08;;;;;;;6.50;5.90;;;7.40;99.90;;;;;;5105890;28;20945;-49
2022/09/23 04:41:37;;;;;;;5.73;5.13;;;7.40;99.90;;;;;;5103010;28;20248;-48
2022/09/23 04:44:04;;;;;;;5.50;5.00;;;7.50;99.90;;;;;;5104191;28;20233;-49
2022/09/23 04:46:31;;;;;;;6.70;6.13;;;7.40;99.90;;;;;;5112401;28;20217;-49
2022/09/23 04:48:58;;;;;;;5.67;5.27;;;7.40;99.90;;;;;;5105253;28;20255;-50
2022/09/23 04:51:26;;;;;;;6.23;5.73;;;7.30;99.90;;;;;;5103186;28;20264;-49
2022/09/23 04:53:54;;;;;;;6.70;5.60;;;7.30;99.90;;;;;;5107659;28;20258;-49
2022/09/23 04:56:23;;;;;;;6.77;6.20;;;7.30;99.90;;;;;;5112005;28;20691;-49
2022/09/23 04:58:52;;;;;;;6.30;5.77;;;7.30;99.90;;;;;;5112285;28;20264;-48
2022/09/23 05:01:23;;;;;;;6.97;6.37;;;7.30;99.90;;;;;;5112297;28;20202;-48
2022/09/23 05:03:51;;;;;;;6.57;6.07;;;7.30;99.90;;;;;;5116297;28;20579;-48
2022/09/23 05:06:19;;;;;;;7.13;6.43;;;7.30;99.90;;;;;;5111328;28;20269;-48
2022/09/23 05:08:49;;;;;;;6.97;6.33;;;7.40;99.90;;;;;;5114175;28;20328;-49
2022/09/23 05:11:17;;;;;;;6.90;6.40;;;7.40;99.90;;;;;;5116293;28;20647;-49
2022/09/23 05:13:45;;;;;;;11.83;7.83;;;7.40;99.90;;;;;;5116065;28;20685;-49
2022/09/23 05:16:14;;;;;;;9.73;8.67;;;7.30;99.90;;;;;;5114633;28;20194;-49
2022/09/23 05:18:42;;;;;;;8.87;7.80;;;7.30;99.90;;;;;;5113170;28;20229;-48
2022/09/23 05:21:10;;;;;;;9.70;7.47;;;7.30;99.90;;;;;;5114163;28;20212;-49
2022/09/23 05:23:37;;;;;;;7.87;7.23;;;7.30;99.90;;;;;;5104586;28;20204;-49
2022/09/23 05:26:07;;;;;;;7.93;7.33;;;7.30;99.90;;;;;;5104377;28;20221;-48
2022/09/23 05:28:36;;;;;;;7.77;7.07;;;7.30;99.90;;;;;;5106937;28;20227;-48
2022/09/23 05:31:04;;;;;;;6.50;5.77;;;7.30;99.90;;;;;;5107610;28;20199;-49
2022/09/23 05:33:33;;;;;;;7.00;6.40;;;7.30;99.90;;;;;;5115510;28;20663;-48
2022/09/23 05:36:00;;;;;;;8.93;7.17;;;7.40;99.90;;;;;;5109081;28;20296;-49
2022/09/23 05:38:30;;;;;;;6.30;5.70;;;7.40;99.90;;;;;;5109612;28;20304;-48
2022/09/23 05:40:58;;;;;;;8.30;7.53;;;7.40;99.90;;;;;;5104412;28;20202;-48
2022/09/23 05:43:29;;;;;;;7.03;6.43;;;7.50;99.90;;;;;;5105635;28;20300;-49
2022/09/23 05:46:02;;;;;;;9.67;7.40;;;7.50;99.90;;;;;;5110303;28;20305;-49
2022/09/23 05:48:30;;;;;;;10.43;8.53;;;7.60;99.90;;;;;;5110944;28;20274;-48
2022/09/23 05:51:02;;;;;;;9.43;8.37;;;7.70;99.90;;;;;;5105715;28;20573;-49
2022/09/23 05:53:30;;;;;;;9.20;8.30;;;7.80;99.90;;;;;;5107749;28;20196;-49
2022/09/23 05:55:57;;;;;;;9.97;8.93;;;7.80;99.90;;;;;;5112117;28;20663;-49
2022/09/23 05:58:28;;;;;;;5.93;5.40;;;7.90;99.90;;;;;;5101161;28;20214;-48
2022/09/23 06:00:56;;;;;;;7.00;5.63;;;8.00;99.90;;;;;;5113296;28;20209;-50
2022/09/23 06:03:26;;;;;;;5.83;5.50;;;8.10;99.90;;;;;;5110649;28;20348;-48
2022/09/23 06:05:53;;;;;;;8.47;5.73;;;8.30;99.90;;;;;;5109449;28;20287;-49
2022/09/23 06:08:22;;;;;;;8.97;6.80;;;8.60;99.90;;;;;;5102604;28;20702;-49
2022/09/23 06:10:50;;;;;;;6.77;5.70;;;9.10;99.90;;;;;;5105682;28;20606;-50
2022/09/23 06:13:17;;;;;;;5.73;5.33;;;9.60;99.90;;;;;;5110641;28;20219;-49
2022/09/23 06:15:44;;;;;;;5.27;4.60;;;10.10;99.90;;;;;;5110943;28;20200;-48
2022/09/23 06:18:12;;;;;;;5.10;4.57;;;10.60;99.90;;;;;;5106973;28;20222;-49
2022/09/23 06:20:40;;;;;;;4.43;3.93;;;10.70;99.90;;;;;;5110416;28;20225;-49
2022/09/23 06:23:09;;;;;;;5.17;4.67;;;10.70;99.90;;;;;;5115097;27;20194;-48
2022/09/23 06:25:38;;;;;;;5.10;4.70;;;10.60;99.90;;;;;;5114207;28;20571;-48
2022/09/23 06:28:09;;;;;;;6.07;4.73;;;10.60;99.90;;;;;;5105578;28;20221;-49
2022/09/23 06:30:38;;;;;;;4.50;4.20;;;10.60;99.90;;;;;;5106096;28;20203;-49
2022/09/23 06:33:05;;;;;;;4.63;4.23;;;10.60;99.90;;;;;;5113481;28;20283;-48
2022/09/23 06:35:32;;;;;;;4.67;4.37;;;10.50;99.90;;;;;;5111234;28;20202;-49
2022/09/23 06:38:02;;;;;;;4.57;4.17;;;10.40;99.90;;;;;;5110471;28;20220;-48
2022/09/23 06:40:29;;;;;;;5.23;3.83;;;10.30;99.90;;;;;;5106460;28;20203;-49
2022/09/23 06:43:02;;;;;;;3.67;3.03;;;10.30;99.90;;;;;;5106535;28;20210;-48
2022/09/23 06:45:29;;;;;;;4.80;3.57;;;10.30;99.90;;;;;;5099128;28;20320;-49
2022/09/23 06:47:57;;;;;;;3.30;3.00;;;10.40;99.90;;;;;;5098234;28;20291;-48
2022/09/23 06:50:26;;;;;;;3.42;3.13;;;10.40;99.90;;;;;;5109609;28;20459;-49
2022/09/23 06:52:54;;;;;;;2.83;2.63;;;10.50;99.90;;;;;;5112810;28;20258;-48
2022/09/23 06:55:22;;;;;;;3.10;2.90;;;10.60;99.90;;;;;;5114022;28;20194;-49
2022/09/23 06:57:49;;;;;;;3.17;2.97;;;10.70;99.90;;;;;;5109539;28;20275;-49
2022/09/23 07:00:18;;;;;;;3.33;3.13;;;10.80;99.90;;;;;;5113878;28;20201;-48
2022/09/23 07:02:45;;;;;;;2.80;2.70;;;10.90;99.90;;;;;;5108371;28;20262;-48
2022/09/23 07:05:12;;;;;;;3.83;3.53;;;11.00;99.90;;;;;;5111650;28;20263;-49
2022/09/23 07:07:40;;;;;;;2.87;2.70;;;11.10;99.90;;;;;;5113375;28;20267;-48
2022/09/23 07:10:07;;;;;;;4.47;2.97;;;11.20;99.90;;;;;;5113696;28;20706;-48
2022/09/23 07:12:34;;;;;;;2.63;2.53;;;11.30;99.90;;;;;;5100277;28;20296;-50
2022/09/23 07:15:02;;;;;;;3.43;2.50;;;11.30;99.90;;;;;;5106129;28;20202;-49
2022/09/23 07:17:30;;;;;;;2.80;2.60;;;11.40;99.90;;;;;;5113626;28;20202;-49
2022/09/23 07:19:57;;;;;;;3.17;2.30;;;11.40;99.90;;;;;;5113814;28;20259;-49
2022/09/23 07:22:25;;;;;;;3.03;2.83;;;11.50;99.90;;;;;;5114003;28;20210;-49
2022/09/23 07:24:54;;;;;;;4.10;2.33;;;11.60;99.90;;;;;;5113175;28;20207;-48
2022/09/23 07:27:24;;;;;;;2.60;2.50;;;11.60;99.90;;;;;;5112893;28;20222;-49
2022/09/23 07:29:51;;;;;;;3.00;2.80;;;11.80;99.90;;;;;;5112960;28;20314;-49
2022/09/23 07:32:18;;;;;;;2.73;2.60;;;11.90;99.90;;;;;;5113717;28;20763;-48
2022/09/23 07:34:47;;;;;;;3.20;2.87;;;12.00;99.90;;;;;;5113256;28;20252;-48
2022/09/23 07:37:14;;;;;;;3.70;2.73;;;12.10;99.90;;;;;;5113555;28;20734;-48
2022/09/23 07:39:41;;;;;;;2.90;2.73;;;12.20;99.90;;;;;;5113447;28;20271;-50
2022/09/23 07:42:08;;;;;;;2.70;2.50;;;12.30;99.90;;;;;;5113700;28;20282;-48
2022/09/23 07:44:35;;;;;;;3.87;3.67;;;12.40;99.90;;;;;;5105691;28;20684;-48
2022/09/23 07:47:02;;;;;;;2.93;2.60;;;12.50;99.90;;;;;;5104706;28;20214;-49
2022/09/23 07:49:29;;;;;;;2.90;2.70;;;12.50;99.90;;;;;;5113170;28;20240;-48
2022/09/23 07:51:57;;;;;;;2.30;2.10;;;12.60;99.90;;;;;;5113387;28;20340;-49
2022/09/23 07:54:28;;;;;;;8.97;4.87;;;12.80;99.90;;;;;;5112826;28;20673;-50
2022/09/23 07:56:55;;;;;;;2.93;2.73;;;13.00;99.90;;;;;;5113208;28;20200;-49
2022/09/23 07:59:23;;;;;;;3.47;2.80;;;13.20;99.90;;;;;;5112885;28;20256;-50
2022/09/23 08:01:52;;;;;;;4.93;3.73;;;13.40;99.90;;;;;;5108720;28;20204;-50
2022/09/23 08:04:22;;;;;;;8.23;5.23;;;13.60;99.90;;;;;;5112794;28;20202;-48
2022/09/23 08:06:52;;;;;;;3.20;3.00;;;13.90;99.90;;;;;;5109446;28;20304;-50
2022/09/23 08:09:22;;;;;;;4.03;3.63;;;14.30;99.90;;;;;;5112724;28;20257;-49
2022/09/23 08:11:51;;;;;;;3.33;3.13;;;15.00;99.90;;;;;;5112737;28;20199;-48
2022/09/23 08:14:21;;;;;;;3.70;3.30;;;15.90;99.90;;;;;;5111222;28;20294;-49
2022/09/23 08:16:48;;;;;;;5.30;3.73;;;16.70;99.90;;;;;;5110730;28;20696;-50
2022/09/23 08:19:15;;;;;;;4.10;3.90;;;17.30;99.90;;;;;;5109107;28;20287;-49
2022/09/23 08:21:43;;;;;;;3.43;3.17;;;18.10;99.90;;;;;;5112547;28;20718;-49
2022/09/23 08:24:14;;;;;;;5.43;2.77;;;19.00;99.90;;;;;;5111884;28;20202;-50
2022/09/23 08:26:42;;;;;;;3.60;3.30;;;19.60;99.90;;;;;;5112495;28;20228;-49
2022/09/23 08:29:11;;;;;;;4.90;3.40;;;19.90;99.90;;;;;;5112551;28;20299;-50
2022/09/23 08:31:38;;;;;;;3.67;3.33;;;20.50;99.90;;;;;;5112651;28;20615;-49
2022/09/23 08:34:05;;;;;;;6.57;3.70;;;21.00;99.90;;;;;;5105814;28;20539;-50
2022/09/23 08:36:32;;;;;;;3.97;3.57;;;20.90;99.90;;;;;;5111120;28;20192;-49
2022/09/23 08:38:59;;;;;;;4.50;3.43;;;20.50;99.90;;;;;;5112047;28;20257;-49
2022/09/23 08:41:35;;;;;;;4.50;4.00;;;20.80;99.90;;;;;;5112022;28;20262;-49
2022/09/23 08:44:10;;;;;;;4.20;3.80;;;21.10;99.90;;;;;;5111852;28;20286;-50
2022/09/23 08:46:42;;;;;;;7.70;3.97;;;21.30;99.90;;;;;;5112073;28;20226;-49
2022/09/23 08:49:16;;;;;;;3.40;3.20;;;21.70;99.90;;;;;;5107712;28;20220;-49
2022/09/23 08:51:46;;;;;;;3.40;3.10;;;22.00;99.90;;;;;;5111969;28;20260;-50
2022/09/23 08:54:13;;;;;;;3.10;3.00;;;22.30;99.90;;;;;;5112276;28;20192;-50
2022/09/23 08:56:44;;;;;;;2.40;2.20;;;22.20;99.90;;;;;;5111930;28;20241;-49
2022/09/23 08:59:18;;;;;;;2.63;2.57;;;22.30;99.90;;;;;;5112025;28;20485;-50
2022/09/23 09:01:47;;;;;;;3.83;3.63;;;22.60;99.90;;;;;;5112044;28;20264;-50
2022/09/23 09:04:22;;;;;;;3.83;3.03;;;22.50;99.90;;;;;;5111686;28;20268;-50
2022/09/23 09:06:52;;;;;;;4.60;3.03;;;22.70;99.90;;;;;;5102962;28;20569;-50
2022/09/23 09:09:23;;;;;;;3.17;2.97;;;22.80;99.90;;;;;;5111647;28;20220;-50
2022/09/23 09:11:56;;;;;;;3.67;3.47;;;23.10;99.90;;;;;;5112068;28;20642;-50
2022/09/23 09:14:31;;;;;;;3.03;2.87;;;23.10;99.90;;;;;;5111387;28;20264;-50
2022/09/23 09:17:01;;;;;;;3.80;3.50;;;22.90;99.90;;;;;;5111662;28;20199;-50
2022/09/23 09:19:52;;;;;;;4.43;2.97;;;22.70;99.90;;;;;;5111474;28;20232;-48
2022/09/23 09:22:22;;;;;;;2.80;2.70;;;22.70;99.90;;;;;;5105535;28;20635;-50
2022/09/23 09:24:49;;;;;;;2.93;2.83;;;22.60;99.90;;;;;;5111600;28;20207;-50
2022/09/23 09:27:17;;;;;;;8.50;3.13;;;22.50;99.90;;;;;;5111711;28;20220;-50
2022/09/23 09:29:48;;;;;;;11.43;2.70;;;22.00;99.90;;;;;;5106246;28;20223;-49
2022/09/23 09:32:25;;;;;;;2.77;2.57;;;21.80;99.90;;;;;;5112039;28;20282;-50
2022/09/23 09:34:58;;;;;;;2.83;2.70;;;22.10;99.90;;;;;;5111681;28;20199;-50
2022/09/23 09:37:31;;;;;;;3.23;2.70;;;22.40;99.90;;;;;;5111876;28;20204;-50
2022/09/23 09:39:58;;;;;;;4.07;2.47;;;22.30;99.90;;;;;;5111705;28;20286;-49
2022/09/23 09:42:37;;;;;;;2.77;2.57;;;22.10;99.90;;;;;;5107049;28;20197;-50
2022/09/23 09:45:15;;;;;;;3.30;3.10;;;21.80;99.90;;;;;;5103606;28;20720;-50
2022/09/23 09:47:48;;;;;;;3.43;2.50;;;21.40;99.90;;;;;;5112353;28;20227;-49
2022/09/23 09:50:20;;;;;;;6.50;3.60;;;21.30;99.90;;;;;;5115700;28;20199;-50
2022/09/23 09:52:47;;;;;;;3.27;2.97;;;21.30;99.90;;;;;;5115688;28;20195;-50
2022/09/23 09:55:25;;;;;;;3.70;3.30;;;21.00;99.90;;;;;;5115204;28;20204;-49
2022/09/23 09:58:00;;;;;;;4.80;2.47;;;20.90;99.90;;;;;;5112879;28;20709;-50
2022/09/23 10:00:42;;;;;;;6.13;2.73;;;20.90;99.90;;;;;;5110054;28;20199;-49
2022/09/23 10:03:29;;;;;;;8.10;2.97;;;20.90;99.90;;;;;;5104753;28;20327;-49
2022/09/23 10:05:56;;;;;;;4.40;2.67;;;20.80;99.90;;;;;;5104829;28;20211;-50
2022/09/23 10:08:31;;;;;;;2.97;2.27;;;20.50;99.90;;;;;;5109538;28;20216;-51
2022/09/23 10:11:03;;;;;;;2.03;1.93;;;20.40;99.90;;;;;;5107280;28;20285;-50
2022/09/23 10:13:31;;;;;;;5.40;2.43;;;20.20;99.90;;;;;;5103010;28;20195;-49
2022/09/23 10:16:02;;;;;;;4.03;2.67;;;20.20;99.90;;;;;;5106521;28;20204;-49
2022/09/23 10:18:34;;;;;;;3.20;2.57;;;20.00;99.90;;;;;;5114726;28;20211;-49
2022/09/23 10:21:07;;;;;;;3.40;2.40;;;20.20;99.90;;;;;;5107557;28;20200;-49
2022/09/23 10:23:40;;;;;;;3.53;2.50;;;20.30;99.90;;;;;;5112097;28;20295;-50
2022/09/23 10:26:09;;;;;;;3.17;2.97;;;20.10;99.90;;;;;;5107088;28;20188;-49
2022/09/23 10:28:44;;;;;;;4.00;2.63;;;20.10;99.90;;;;;;5104030;28;20228;-51
2022/09/23 10:31:14;;;;;;;2.43;2.33;;;20.20;99.90;;;;;;5107921;28;20203;-49
2022/09/23 10:33:47;;;;;;;3.03;2.70;;;20.00;99.90;;;;;;5111995;28;20199;-49
2022/09/23 10:36:16;;;;;;;2.43;2.33;;;20.10;99.90;;;;;;5106611;28;20245;-49
2022/09/23 10:38:43;;;;;;;2.67;2.47;;;20.10;99.90;;;;;;5113333;28;20299;-50
2022/09/23 10:47:15;;;;;;;4.53;3.10;;;20.00;99.90;;;;;;5097893;28;20224;-50
2022/09/23 10:50:07;;;;;;;2.07;2.00;;;20.20;99.90;;;;;;5093958;28;20281;-49
2022/09/23 10:52:44;;;;;;;2.53;2.43;;;20.20;99.90;;;;;;5092242;28;20697;-49
2022/09/23 10:55:22;;;;;;;2.43;2.00;;;20.30;99.90;;;;;;5103780;28;20199;-50
2022/09/23 10:58:16;;;;;;;2.70;2.10;;;20.30;99.90;;;;;;5109242;28;20297;-49
2022/09/23 11:00:54;;;;;;;6.77;6.27;;;20.40;99.90;;;;;;5111280;28;20203;-49
2022/09/23 11:03:47;;;;;;;7.43;6.83;;;20.30;99.90;;;;;;5105490;28;20223;-50
2022/09/23 11:06:23;;;;;;;9.50;8.80;;;20.10;99.90;;;;;;5107769;28;20257;-49
2022/09/23 11:09:06;;;;;;;7.93;7.33;;;20.00;99.90;;;;;;5107283;28;20227;-50
2022/09/23 11:11:45;;;;;;;11.67;10.77;;;19.90;99.90;;;;;;5109868;27;20199;-49
2022/09/23 11:14:31;;;;;;;9.80;8.97;;;19.90;99.90;;;;;;5106576;28;20722;-49
2022/09/23 11:17:18;;;;;;;6.33;5.90;;;19.90;99.90;;;;;;5113935;28;20195;-48
2022/09/23 11:20:26;;;;;;;7.17;6.60;;;20.00;99.90;;;;;;5093721;28;20718;-49
2022/09/23 11:23:22;;;;;;;7.37;6.70;;;20.00;99.90;;;;;;5049092;28;20205;-49
2022/09/23 11:26:01;;;;;;;7.23;6.57;;;20.00;99.90;;;;;;5108422;28;20206;-49
2022/09/23 11:28:57;;;;;;;14.17;12.23;;;20.10;99.90;;;;;;5113625;28;20223;-50
2022/09/23 11:31:36;;;;;;;13.13;11.93;;;20.10;99.90;;;;;;5114034;28;20257;-49
2022/09/23 11:34:33;;;;;;;8.10;6.80;;;19.80;99.90;;;;;;5113366;28;20200;-49
2022/09/23 11:37:04;;;;;;;7.30;6.90;;;19.90;99.90;;;;;;5112628;28;20705;-50
2022/09/23 11:39:36;;;;;;;6.90;6.40;;;19.90;99.90;;;;;;5095485;28;20278;-50
2022/09/23 11:42:11;;;;;;;6.13;5.80;;;20.00;99.90;;;;;;5092829;28;20673;-49
2022/09/23 11:44:43;;;;;;;7.73;5.63;;;19.90;99.90;;;;;;5092823;28;20203;-50
2022/09/23 11:47:18;;;;;;;6.40;4.90;;;20.00;99.90;;;;;;5105365;28;20219;-50
2022/09/23 11:49:51;;;;;;;6.23;5.83;;;19.90;99.90;;;;;;5106489;28;20306;-50
2022/09/23 11:52:22;;;;;;;5.70;5.40;;;19.90;99.90;;;;;;5113076;28;20602;-49
2022/09/23 11:54:56;;;;;;;6.40;5.90;;;19.90;99.90;;;;;;5109664;28;21191;-49
2022/09/23 11:57:27;;;;;;;5.60;5.23;;;19.80;99.90;;;;;;5092826;28;20254;-49
2022/09/23 12:00:00;;;;;;;7.00;5.53;;;19.90;99.90;;;;;;5092714;28;20257;-49
2022/09/23 12:02:38;;;;;;;4.93;4.37;;;20.00;99.90;;;;;;5092050;28;20764;-50
2022/09/23 12:05:11;;;;;;;5.47;4.97;;;20.00;99.90;;;;;;5106857;27;20256;-48
2022/09/23 12:07:49;;;;;;;5.00;4.60;;;20.10;99.90;;;;;;5112446;28;20261;-50
2022/09/23 12:10:18;;;;;;;6.83;5.27;;;20.10;99.90;;;;;;5112029;28;20257;-49
2022/09/23 12:12:53;;;;;;;5.23;4.73;;;20.00;99.90;;;;;;5112689;28;20196;-49
2022/09/23 12:15:34;;;;;;;6.60;4.83;;;20.00;99.90;;;;;;5111187;28;20257;-49
2022/09/23 12:18:20;;;;;;;5.33;4.93;;;20.10;99.90;;;;;;5112545;28;20703;-49
2022/09/23 12:21:02;;;;;;;8.73;4.93;;;19.90;99.90;;;;;;5110579;28;20248;-50
2022/09/23 12:23:55;;;;;;;5.40;5.00;;;20.00;99.90;;;;;;5110118;28;20259;-49
2022/09/23 12:26:25;;;;;;;7.40;4.30;;;20.10;99.90;;;;;;5106971;28;20223;-50
2022/09/23 12:28:55;;;;;;;5.77;5.37;;;19.90;99.90;;;;;;5111516;28;20647;-49
2022/09/23 12:31:29;;;;;;;5.60;5.20;;;19.90;99.90;;;;;;5112384;28;20260;-49
2022/09/23 12:33:58;;;;;;;6.27;5.77;;;20.00;99.90;;;;;;5112353;28;20267;-50
2022/09/23 12:36:33;;;;;;;5.47;4.93;;;20.00;99.90;;;;;;5102830;28;20292;-50
2022/09/23 12:39:03;;;;;;;6.10;5.57;;;20.00;99.90;;;;;;5111833;28;20722;-49
2022/09/23 12:41:37;;;;;;;6.00;4.60;;;20.10;99.90;;;;;;5119832;27;20187;-49
2022/09/23 12:44:24;;;;;;;5.30;4.87;;;20.00;99.90;;;;;;5102028;28;20196;-50
2022/09/23 12:47:31;;;;;;;5.23;4.00;;;20.10;99.90;;;;;;5112171;28;20653;-50
2022/09/23 12:49:59;;;;;;;5.27;4.40;;;20.00;99.90;;;;;;5111661;28;20183;-49
2022/09/23 12:52:29;;;;;;;5.00;3.50;;;20.10;99.90;;;;;;5109311;28;20282;-49
2022/09/23 12:54:58;;;;;;;4.53;4.23;;;20.00;99.90;;;;;;5109983;28;20214;-49
2022/09/23 12:57:42;;;;;;;4.73;4.33;;;20.00;99.90;;;;;;5112273;28;20196;-49
2022/09/23 13:00:24;;;;;;;3.57;3.40;;;20.00;99.90;;;;;;5105162;28;20196;-49
2022/09/23 13:08:35;;;;;;;4.60;4.30;;;19.90;99.90;;;;;;5077185;28;20270;-50
2022/09/23 13:11:05;;;;;;;3.87;3.57;;;19.80;99.90;;;;;;5103630;28;20204;-50
2022/09/23 13:13:37;;;;;;;4.40;4.10;;;19.80;99.90;;;;;;5109586;28;20205;-49
2022/09/23 13:16:13;;;;;;;4.97;4.77;;;19.80;99.90;;;;;;5103939;28;20199;-49
2022/09/23 13:18:58;;;;;;;5.40;4.27;;;19.60;99.90;;;;;;5111764;28;20314;-50
2022/09/23 13:22:06;;;;;;;5.03;4.63;;;19.60;99.90;;;;;;5111968;28;20206;-49
2022/09/23 13:24:44;;;;;;;5.20;4.80;;;19.60;99.90;;;;;;5110780;28;20199;-49
2022/09/23 13:27:21;;;;;;;5.43;5.03;;;19.50;99.90;;;;;;5115730;28;20196;-50
2022/09/23 13:29:56;;;;;;;7.57;5.63;;;19.60;99.90;;;;;;5115941;28;20223;-49